Time;durP1;ratioP1;P1;durP2;ratioP2;P2;SDS_P1;SDS_P2;PMS_P1;PMS_P2;Temp;Humidity;BMP_temperature;BMP_pressure;BME280_temperature;BME280_humidity;BME280_pressure;Samples;Min_cycle;Max_cycle;Signal;HPM_P1;HPM_P2
2024/03/31 00:00:19;;;;;;;9.23;2.72;;;;;;;8.42;97.87;98566.91;4930516;29;20125;-60
2024/03/31 00:02:46;;;;;;;7.03;1.38;;;;;;;8.42;97.88;98582.63;4933350;29;20062;-59
2024/03/31 00:05:12;;;;;;;6.30;1.52;;;;;;;8.43;98.10;98589.75;4932998;29;20058;-60
2024/03/31 00:07:38;;;;;;;3.15;2.05;;;;;;;8.43;97.95;98590.53;4948396;29;20446;-59
2024/03/31 00:10:05;;;;;;;5.18;1.33;;;;;;;8.38;97.33;98543.25;4932801;29;20394;-60
2024/03/31 00:12:31;;;;;;;8.45;1.98;;;;;;;8.36;97.34;98516.06;4933534;29;20054;-60
2024/03/31 00:14:58;;;;;;;7.18;1.05;;;;;;;8.31;97.11;98510.88;4933007;29;20054;-61
2024/03/31 00:17:28;;;;;;;1.58;0.77;;;;;;;8.29;97.07;98498.66;4934305;29;20138;-60
2024/03/31 00:19:54;;;;;;;3.00;1.10;;;;;;;8.26;96.88;98496.66;4932890;29;20044;-60
2024/03/31 00:22:20;;;;;;;2.83;1.17;;;;;;;8.25;96.84;98519.88;4929085;29;20517;-60
2024/03/31 00:24:47;;;;;;;4.97;1.45;;;;;;;8.23;96.52;98520.28;4931681;29;20043;-59
2024/03/31 00:27:13;;;;;;;13.05;4.15;;;;;;;8.24;96.26;98521.03;4933072;29;20417;-59
2024/03/31 00:29:39;;;;;;;2.25;0.80;;;;;;;8.19;95.89;98529.69;4933223;29;20050;-59
2024/03/31 00:32:06;;;;;;;2.63;0.90;;;;;;;8.17;95.75;98521.00;4948564;29;21048;-59
2024/03/31 00:34:33;;;;;;;5.28;1.15;;;;;;;8.16;95.71;98524.94;4932576;29;20047;-59
2024/03/31 00:36:59;;;;;;;4.72;0.80;;;;;;;8.15;95.36;98524.16;4948861;29;20058;-59
2024/03/31 00:39:27;;;;;;;2.33;1.17;;;;;;;8.16;95.26;98524.94;4933620;29;20043;-59
2024/03/31 00:41:54;;;;;;;4.63;1.10;;;;;;;8.17;95.64;98523.75;4948947;29;20040;-60
2024/03/31 00:44:21;;;;;;;7.18;1.65;;;;;;;8.18;95.40;98522.59;4931741;29;20051;-60
2024/03/31 00:46:48;;;;;;;8.52;2.13;;;;;;;8.19;95.44;98518.66;4929872;29;20043;-59
2024/03/31 00:49:14;;;;;;;4.97;1.40;;;;;;;8.21;95.65;98521.81;4932046;29;20058;-59
2024/03/31 00:51:40;;;;;;;7.13;1.80;;;;;;;8.22;95.63;98517.88;4916520;29;20398;-59
2024/03/31 00:54:08;;;;;;;9.90;1.83;;;;;;;8.22;95.84;98512.38;4916641;29;20159;-60
2024/03/31 00:56:34;;;;;;;8.48;1.80;;;;;;;8.22;96.00;98517.88;4922970;29;20048;-60
2024/03/31 00:59:00;;;;;;;7.07;1.73;;;;;;;8.22;96.17;98520.66;4920073;29;20520;-59
2024/03/31 01:01:27;;;;;;;14.80;2.30;;;;;;;8.23;96.33;98519.50;4948313;28;20792;-62
2024/03/31 01:03:53;;;;;;;10.35;2.13;;;;;;;8.23;96.54;98522.25;4932264;29;20771;-59
2024/03/31 01:06:22;;;;;;;7.80;1.70;;;;;;;8.24;96.53;98521.84;4932054;29;20058;-61
2024/03/31 01:08:50;;;;;;;5.40;1.30;;;;;;;8.25;96.65;98528.16;4931982;29;20055;-60
2024/03/31 01:11:17;;;;;;;6.07;1.85;;;;;;;8.25;96.76;98526.19;4931720;29;20405;-60
2024/03/31 01:13:44;;;;;;;15.75;2.45;;;;;;;8.27;96.90;98536.84;4931598;29;20574;-59
2024/03/31 01:16:11;;;;;;;11.32;1.85;;;;;;;8.28;96.85;98538.44;4931565;29;20047;-60
2024/03/31 01:18:38;;;;;;;5.07;1.73;;;;;;;8.28;96.92;98550.28;4928858;29;20410;-60
2024/03/31 01:21:04;;;;;;;9.68;2.05;;;;;;;8.29;97.18;98540.00;4927764;29;20063;-59
2024/03/31 01:24:09;;;;;;;12.27;2.28;;;;;;;8.28;97.33;98555.00;4931078;29;20058;-59
2024/03/31 01:26:36;;;;;;;8.77;1.70;;;;;;;8.27;97.55;98558.91;4932617;29;20058;-60
2024/03/31 01:29:02;;;;;;;6.07;1.88;;;;;;;8.20;97.63;98558.84;4932084;29;20055;-60
2024/03/31 01:31:28;;;;;;;9.32;1.23;;;;;;;8.12;97.89;98557.19;4918665;29;20047;-60
2024/03/31 01:33:55;;;;;;;10.52;1.38;;;;;;;8.05;97.95;98555.16;4930471;29;20055;-60
2024/03/31 01:36:21;;;;;;;12.05;3.60;;;;;;;7.99;98.02;98562.97;4931859;29;20410;-61
2024/03/31 01:38:47;;;;;;;15.27;2.70;;;;;;;7.97;98.43;98559.81;4930967;29;20540;-60
2024/03/31 01:41:13;;;;;;;10.68;2.33;;;;;;;7.94;98.43;98551.56;4947660;29;20062;-61
2024/03/31 01:43:40;;;;;;;10.73;2.25;;;;;;;7.91;98.80;98536.56;4931066;29;20058;-61
2024/03/31 01:46:08;;;;;;;11.40;3.20;;;;;;;7.86;99.10;98539.66;4928149;29;20055;-60
2024/03/31 01:48:35;;;;;;;8.00;2.65;;;;;;;7.84;99.22;98542.00;4922077;29;20459;-61
2024/03/31 01:51:01;;;;;;;8.52;2.95;;;;;;;7.82;99.43;98549.06;4928655;29;20048;-61
2024/03/31 01:53:27;;;;;;;15.50;4.00;;;;;;;7.81;99.59;98544.75;4925951;29;20043;-61
2024/03/31 01:55:54;;;;;;;8.20;2.33;;;;;;;7.80;99.69;98546.69;4947680;29;20812;-61
2024/03/31 01:58:21;;;;;;;14.40;2.72;;;;;;;7.79;99.94;98541.56;4931347;29;20047;-61
2024/03/31 02:00:47;;;;;;;13.65;2.47;;;;;;;7.77;99.95;98533.69;4930503;29;20101;-60
2024/03/31 02:03:14;;;;;;;9.90;1.75;;;;;;;7.75;100.00;98522.28;4931255;29;20055;-61
2024/03/31 02:05:40;;;;;;;13.70;2.13;;;;;;;7.74;100.00;98526.19;4923703;29;20078;-61
2024/03/31 02:08:06;;;;;;;9.98;2.00;;;;;;;7.71;100.00;98517.88;4929202;29;20422;-61
2024/03/31 02:10:33;;;;;;;13.30;2.55;;;;;;;7.69;100.00;98522.97;4930153;29;20043;-61
2024/03/31 02:12:59;;;;;;;10.63;2.00;;;;;;;7.69;100.00;98526.53;4931129;29;20050;-61
2024/03/31 02:15:26;;;;;;;12.13;2.13;;;;;;;7.67;100.00;98520.63;4931337;29;20497;-61
2024/03/31 02:17:53;;;;;;;13.38;2.95;;;;;;;7.68;100.00;98515.88;4930587;29;20062;-61
2024/03/31 02:20:19;;;;;;;21.67;4.30;;;;;;;7.69;100.00;98521.03;4927939;29;20063;-61
2024/03/31 02:22:45;;;;;;;9.93;3.08;;;;;;;7.71;100.00;98526.13;4924936;29;20048;-61
2024/03/31 02:25:12;;;;;;;17.60;4.25;;;;;;;7.72;100.00;98517.50;4927441;29;20056;-61
2024/03/31 02:27:38;;;;;;;9.32;2.00;;;;;;;7.72;100.00;98520.28;4926394;29;20055;-61
2024/03/31 02:30:05;;;;;;;11.18;2.40;;;;;;;7.74;100.00;98515.16;4931187;29;20406;-61
2024/03/31 02:32:31;;;;;;;12.15;1.83;;;;;;;7.75;100.00;98511.25;4946960;28;20044;-61
2024/03/31 02:34:57;;;;;;;12.65;2.58;;;;;;;7.75;100.00;98516.75;4927626;29;20047;-60
2024/03/31 02:37:24;;;;;;;8.55;2.38;;;;;;;7.77;100.00;98514.41;4941892;29;20047;-60
2024/03/31 02:39:50;;;;;;;9.60;2.00;;;;;;;7.77;100.00;98508.91;4930228;29;20055;-60
2024/03/31 02:42:16;;;;;;;10.25;2.22;;;;;;;7.79;100.00;98511.25;4929996;29;20059;-61
2024/03/31 02:44:43;;;;;;;10.93;1.85;;;;;;;7.78;100.00;98504.94;4930613;28;20453;-60
2024/03/31 02:47:09;;;;;;;9.38;2.40;;;;;;;7.77;100.00;98503.38;4933455;29;20593;-61
2024/03/31 02:49:35;;;;;;;6.60;1.58;;;;;;;7.78;100.00;98504.19;4930873;29;20110;-61
2024/03/31 02:52:02;;;;;;;7.90;2.63;;;;;;;7.80;100.00;98504.59;4930006;29;20063;-61
2024/03/31 02:54:28;;;;;;;8.43;1.90;;;;;;;7.79;100.00;98506.53;4934765;29;20529;-60
2024/03/31 02:56:54;;;;;;;14.23;1.55;;;;;;;7.79;100.00;98500.25;4921648;29;20059;-60
2024/03/31 02:59:20;;;;;;;13.55;2.72;;;;;;;7.80;100.00;98504.59;4934686;29;20039;-61
2024/03/31 03:01:46;;;;;;;13.50;2.15;;;;;;;7.80;100.00;98502.63;5054372;23;20065;-60
2024/03/31 03:04:13;;;;;;;16.15;3.05;;;;;;;7.80;100.00;98486.09;4935111;29;20047;-60
2024/03/31 03:06:39;;;;;;;18.85;2.78;;;;;;;7.81;100.00;98487.66;4933295;29;20055;-60
2024/03/31 03:09:05;;;;;;;9.40;2.10;;;;;;;7.81;100.00;98484.91;4934032;29;20039;-60
2024/03/31 03:11:31;;;;;;;8.85;2.05;;;;;;;7.83;100.00;98473.53;4934124;29;20130;-61
2024/03/31 03:13:58;;;;;;;8.30;2.30;;;;;;;7.81;100.00;98471.13;4934662;29;20059;-60
2024/03/31 03:16:24;;;;;;;8.07;2.15;;;;;;;7.80;100.00;98472.34;4933388;29;20844;-60
2024/03/31 03:18:51;;;;;;;10.75;2.28;;;;;;;7.81;100.00;98471.13;4934370;29;20059;-60
2024/03/31 03:21:17;;;;;;;7.13;1.55;;;;;;;7.81;100.00;98470.38;4933801;29;20433;-60
2024/03/31 03:23:43;;;;;;;7.32;1.45;;;;;;;7.82;100.00;98464.47;4933852;29;20062;-60
2024/03/31 03:26:09;;;;;;;17.15;2.45;;;;;;;7.81;100.00;98464.88;4934073;29;20066;-60
2024/03/31 03:28:36;;;;;;;10.25;2.38;;;;;;;7.82;100.00;98456.22;4933638;29;20051;-60
2024/03/31 03:31:03;;;;;;;6.22;1.90;;;;;;;7.83;100.00;98462.50;4934307;29;20055;-60
2024/03/31 03:33:29;;;;;;;9.30;2.40;;;;;;;7.82;100.00;98458.97;4933844;29;20059;-61
2024/03/31 03:35:55;;;;;;;6.88;2.22;;;;;;;7.83;100.00;98463.31;4934335;29;20416;-61
2024/03/31 03:38:22;;;;;;;12.15;1.95;;;;;;;7.83;100.00;98457.00;4933628;29;20063;-61
2024/03/31 03:40:48;;;;;;;14.50;2.28;;;;;;;7.82;100.00;98458.97;4933999;29;20062;-60
2024/03/31 03:43:14;;;;;;;14.95;2.08;;;;;;;7.82;100.00;98463.69;4934349;29;20054;-61
2024/03/31 03:45:41;;;;;;;8.85;1.90;;;;;;;7.82;100.00;98461.72;4933546;29;20055;-61
2024/03/31 03:48:07;;;;;;;12.10;2.15;;;;;;;7.82;100.00;98463.69;4933804;29;20062;-61
2024/03/31 03:50:36;;;;;;;10.68;2.20;;;;;;;7.82;100.00;98463.69;4933514;29;20408;-61
2024/03/31 03:53:05;;;;;;;14.80;2.38;;;;;;;7.82;100.00;98456.22;4933772;29;20421;-61
2024/03/31 03:55:31;;;;;;;11.32;1.88;;;;;;;7.82;100.00;98458.97;4933145;29;20050;-61
2024/03/31 03:57:58;;;;;;;12.57;3.00;;;;;;;7.83;100.00;98457.81;4932951;29;20055;-61
2024/03/31 04:00:24;;;;;;;11.38;2.42;;;;;;;7.83;100.00;98457.81;4932964;29;20055;-61
2024/03/31 04:02:50;;;;;;;13.93;2.30;;;;;;;7.85;100.00;98460.97;4933123;29;20069;-61
2024/03/31 04:05:17;;;;;;;15.52;2.72;;;;;;;7.84;100.00;98453.84;4932575;29;20150;-61
2024/03/31 04:07:46;;;;;;;16.90;3.90;;;;;;;7.84;100.00;98464.06;4941006;29;20047;-61
2024/03/31 04:10:13;;;;;;;20.13;4.07;;;;;;;7.85;100.00;98460.16;4917111;29;20047;-61
2024/03/31 04:12:39;;;;;;;12.35;2.92;;;;;;;7.85;100.00;98457.41;4933007;29;20070;-61
2024/03/31 04:15:05;;;;;;;16.27;2.80;;;;;;;7.82;100.00;98460.91;4933574;29;20055;-61
2024/03/31 04:17:34;;;;;;;12.77;2.53;;;;;;;7.80;100.00;98453.06;4932137;29;20059;-62
2024/03/31 04:20:00;;;;;;;16.75;3.75;;;;;;;7.78;100.00;98455.38;4933131;29;20047;-61
2024/03/31 04:22:27;;;;;;;17.02;2.88;;;;;;;7.78;100.00;98458.13;4933087;29;20413;-61
2024/03/31 04:24:54;;;;;;;13.68;2.35;;;;;;;7.77;100.00;98453.00;4933005;29;20055;-61
2024/03/31 04:27:20;;;;;;;14.75;2.95;;;;;;;7.76;100.00;98457.72;4932517;29;20070;-61
2024/03/31 04:29:46;;;;;;;14.05;2.90;;;;;;;7.76;100.00;98460.47;4933534;29;20501;-61
2024/03/31 04:32:12;;;;;;;12.30;2.63;;;;;;;7.76;100.00;98457.72;4933288;29;20493;-61
2024/03/31 04:34:38;;;;;;;19.40;2.75;;;;;;;7.75;100.00;98453.41;4948759;29;20063;-61
2024/03/31 04:37:05;;;;;;;17.63;2.92;;;;;;;7.76;100.00;98462.44;4933224;29;20493;-60
2024/03/31 04:39:31;;;;;;;12.00;2.63;;;;;;;7.75;100.00;98458.91;4932157;29;20054;-60
2024/03/31 04:41:57;;;;;;;12.23;2.75;;;;;;;7.75;100.00;98455.38;4932205;29;20062;-60
2024/03/31 04:44:24;;;;;;;14.38;3.10;;;;;;;7.74;100.00;98460.09;4949132;29;20044;-60
2024/03/31 04:46:50;;;;;;;14.85;2.97;;;;;;;7.75;100.00;98466.38;4932376;29;20051;-60
2024/03/31 04:49:17;;;;;;;17.40;3.75;;;;;;;7.73;100.00;98461.25;4932537;29;20055;-60
2024/03/31 04:51:44;;;;;;;15.13;2.67;;;;;;;7.74;100.00;98464.78;4926483;29;20051;-61
2024/03/31 04:54:10;;;;;;;12.48;2.63;;;;;;;7.73;100.00;98466.75;4932416;29;20409;-60
2024/03/31 04:56:37;;;;;;;11.90;3.33;;;;;;;7.73;100.00;98464.00;4932243;29;20086;-60
2024/03/31 04:59:03;;;;;;;17.92;2.70;;;;;;;7.72;100.00;98467.94;4932477;29;20036;-60
2024/03/31 05:01:29;;;;;;;14.13;3.58;;;;;;;7.72;100.00;98462.44;4942424;29;20070;-61
2024/03/31 05:03:55;;;;;;;21.67;2.70;;;;;;;7.72;100.00;98465.19;4935717;29;20070;-61
2024/03/31 05:06:22;;;;;;;21.95;3.88;;;;;;;7.70;100.00;98453.78;4932068;29;21325;-61
2024/03/31 05:08:48;;;;;;;19.65;3.65;;;;;;;7.69;100.00;98463.19;4931603;29;20047;-61
2024/03/31 05:11:14;;;;;;;10.27;2.45;;;;;;;7.69;100.00;98463.19;4931706;29;20062;-61
2024/03/31 05:13:40;;;;;;;15.10;2.92;;;;;;;7.68;100.00;98467.09;4932502;29;20066;-61
2024/03/31 05:16:10;;;;;;;14.20;4.45;;;;;;;7.66;100.00;98463.94;4916401;29;20784;-61
2024/03/31 05:18:37;;;;;;;18.83;2.85;;;;;;;7.66;100.00;98461.19;4932200;29;20059;-61
2024/03/31 05:21:06;;;;;;;21.15;3.20;;;;;;;7.66;100.00;98463.16;4942875;29;20058;-61
2024/03/31 05:23:34;;;;;;;16.48;2.92;;;;;;;7.67;100.00;98470.25;4932294;29;20040;-61
2024/03/31 05:26:00;;;;;;;17.70;2.95;;;;;;;7.66;100.00;98460.41;4932211;29;20055;-60
2024/03/31 05:28:28;;;;;;;15.25;2.83;;;;;;;7.65;100.00;98467.88;4931645;29;20055;-61
2024/03/31 05:30:54;;;;;;;17.88;5.22;;;;;;;7.64;100.00;98469.06;4930949;29;20058;-61
2024/03/31 05:33:21;;;;;;;24.73;2.67;;;;;;;7.65;100.00;98467.09;4947608;29;20055;-60
2024/03/31 05:35:47;;;;;;;13.50;2.88;;;;;;;7.62;100.00;98465.91;4931600;29;20058;-60
2024/03/31 05:38:15;;;;;;;21.58;3.58;;;;;;;7.62;100.00;98467.84;4932206;29;20070;-60
2024/03/31 05:40:43;;;;;;;24.60;4.63;;;;;;;7.62;100.00;98467.84;4931538;29;20059;-59
2024/03/31 05:43:10;;;;;;;18.73;3.53;;;;;;;7.61;100.00;98472.56;4931685;29;20047;-60
2024/03/31 05:45:38;;;;;;;15.25;2.97;;;;;;;7.60;100.00;98465.47;4931305;29;20420;-59
2024/03/31 05:48:08;;;;;;;10.65;2.67;;;;;;;7.60;100.00;98476.47;4932295;29;20503;-60
2024/03/31 05:50:35;;;;;;;18.10;3.13;;;;;;;7.60;100.00;98476.47;4931251;29;20382;-60
2024/03/31 05:53:02;;;;;;;18.15;3.58;;;;;;;7.60;100.00;98475.72;4932145;29;20055;-60
2024/03/31 05:55:28;;;;;;;25.65;6.13;;;;;;;7.59;100.00;98480.41;4930609;29;20393;-60
2024/03/31 05:57:55;;;;;;;13.52;3.13;;;;;;;7.59;100.00;98471.38;4931796;29;20509;-61
2024/03/31 06:00:22;;;;;;;10.35;3.55;;;;;;;7.59;100.00;98474.91;4931488;29;20066;-60
2024/03/31 06:02:49;;;;;;;16.88;2.75;;;;;;;7.59;100.00;98479.63;4931135;29;20050;-60
2024/03/31 06:05:16;;;;;;;18.98;4.25;;;;;;;7.59;100.00;98474.91;4931159;29;20059;-60
2024/03/31 06:07:49;;;;;;;14.80;2.35;;;;;;;7.61;100.00;98483.56;4931725;29;20066;-59
2024/03/31 06:10:16;;;;;;;20.90;2.65;;;;;;;7.64;100.00;98493.84;4930842;29;20054;-61
2024/03/31 06:12:42;;;;;;;11.35;2.63;;;;;;;7.67;100.00;98484.81;4931512;29;20055;-63
2024/03/31 06:15:08;;;;;;;11.98;3.63;;;;;;;7.71;100.00;98499.41;4930698;29;20043;-60
2024/03/31 06:17:36;;;;;;;16.27;2.90;;;;;;;7.73;100.00;98502.56;4931140;29;20047;-61
2024/03/31 06:20:03;;;;;;;13.48;3.17;;;;;;;7.77;100.00;98508.09;4931007;29;20511;-60
2024/03/31 06:22:30;;;;;;;20.42;2.75;;;;;;;7.77;100.00;98503.38;4930913;29;20058;-60
2024/03/31 06:24:56;;;;;;;21.10;5.22;;;;;;;7.79;100.00;98506.53;4931535;29;20043;-60
2024/03/31 06:27:22;;;;;;;24.17;5.45;;;;;;;7.82;100.00;98503.03;4930757;29;20066;-61
2024/03/31 06:29:49;;;;;;;22.58;3.20;;;;;;;7.84;100.00;98500.69;4931119;29;20513;-60
2024/03/31 06:32:16;;;;;;;15.23;3.15;;;;;;;7.87;100.00;98502.69;4931012;29;20054;-60
2024/03/31 06:34:45;;;;;;;15.70;4.10;;;;;;;7.90;100.00;98503.88;4931635;29;20053;-59
2024/03/31 06:37:12;;;;;;;12.50;2.70;;;;;;;7.91;100.00;98498.00;4931554;29;20059;-59
2024/03/31 06:39:38;;;;;;;7.13;2.67;;;;;;;7.94;100.00;98499.19;4930629;29;20062;-61
2024/03/31 06:42:05;;;;;;;13.38;3.38;;;;;;;7.97;100.00;98509.44;4930043;29;20509;-60
2024/03/31 06:44:31;;;;;;;19.48;3.35;;;;;;;7.98;100.00;98509.06;4930597;29;20082;-60
2024/03/31 06:46:58;;;;;;;15.85;3.42;;;;;;;8.01;100.00;98512.22;4931052;29;20692;-60
2024/03/31 06:49:24;;;;;;;15.07;2.55;;;;;;;8.04;100.00;98515.03;4930935;29;20043;-60
2024/03/31 06:51:50;;;;;;;16.63;2.53;;;;;;;8.08;100.00;98515.03;4931153;29;20062;-60
2024/03/31 06:54:17;;;;;;;12.80;2.38;;;;;;;8.11;100.00;98523.31;4931012;29;20056;-60
2024/03/31 06:56:43;;;;;;;16.77;3.42;;;;;;;8.12;100.00;98515.84;4930576;29;20532;-59
2024/03/31 06:59:11;;;;;;;17.00;3.00;;;;;;;8.13;100.00;98518.22;4932006;29;20055;-60
2024/03/31 07:01:38;;;;;;;18.35;3.13;;;;;;;8.14;100.00;98516.25;4930538;29;20074;-60
2024/03/31 07:04:04;;;;;;;15.43;3.30;;;;;;;8.15;100.00;98518.66;4931361;29;20147;-60
2024/03/31 07:06:30;;;;;;;9.10;2.30;;;;;;;8.17;100.00;98521.00;4930651;29;20059;-60
2024/03/31 07:08:56;;;;;;;9.75;2.00;;;;;;;8.20;100.00;98523.81;4930102;29;20043;-59
2024/03/31 07:11:23;;;;;;;20.02;5.82;;;;;;;8.24;100.00;98523.81;4930870;29;20054;-60
2024/03/31 07:13:49;;;;;;;19.23;5.65;;;;;;;8.30;100.00;98533.34;4931007;29;20059;-59
2024/03/31 07:16:16;;;;;;;12.50;2.72;;;;;;;8.35;100.00;98542.03;4930997;29;20050;-59
2024/03/31 07:18:42;;;;;;;12.55;2.85;;;;;;;8.39;100.00;98528.28;4935356;29;20051;-60
2024/03/31 07:21:08;;;;;;;18.92;3.92;;;;;;;8.43;100.00;98529.09;4929471;29;20055;-59
2024/03/31 07:23:34;;;;;;;10.13;3.13;;;;;;;8.46;100.00;98531.09;4930858;29;20051;-60
2024/03/31 07:26:01;;;;;;;12.27;3.22;;;;;;;8.50;100.00;98535.44;4930514;29;20062;-60
2024/03/31 07:28:27;;;;;;;11.43;2.83;;;;;;;8.53;100.00;98550.41;4930914;29;20047;-59
2024/03/31 07:30:54;;;;;;;20.90;3.92;;;;;;;8.54;100.00;98547.28;4930398;28;20066;-59
2024/03/31 07:33:20;;;;;;;13.25;2.70;;;;;;;8.54;100.00;98543.75;4949112;29;20062;-60
2024/03/31 07:35:47;;;;;;;8.85;2.00;;;;;;;8.54;100.00;98557.53;4934182;29;20086;-59
2024/03/31 07:38:13;;;;;;;12.40;2.35;;;;;;;8.52;100.00;98557.91;4934194;29;20059;-60
2024/03/31 07:40:39;;;;;;;10.98;2.75;;;;;;;8.51;100.00;98558.28;4933845;29;20770;-60
2024/03/31 07:43:07;;;;;;;11.98;2.50;;;;;;;8.50;100.00;98556.69;4933739;29;20412;-60
2024/03/31 07:45:33;;;;;;;13.75;3.15;;;;;;;8.51;100.00;98558.28;4933645;29;20059;-60
2024/03/31 07:48:00;;;;;;;14.00;2.60;;;;;;;8.51;100.00;98547.25;4934391;29;20080;-59
2024/03/31 07:50:26;;;;;;;16.65;5.93;;;;;;;8.52;100.00;98557.91;4933588;29;20055;-59
2024/03/31 07:52:52;;;;;;;21.95;5.00;;;;;;;8.56;100.00;98560.69;4934269;29;20055;-59
2024/03/31 07:55:21;;;;;;;9.48;2.38;;;;;;;8.58;100.00;98544.53;4934433;29;20085;-59
2024/03/31 07:57:50;;;;;;;14.25;2.83;;;;;;;8.61;100.00;98557.56;4934287;29;20047;-59
2024/03/31 08:00:17;;;;;;;7.68;2.40;;;;;;;8.61;100.00;98563.06;4934000;29;20055;-60
2024/03/31 08:02:43;;;;;;;11.00;2.22;;;;;;;8.60;100.00;98560.72;4932916;29;20062;-60
2024/03/31 08:05:09;;;;;;;11.07;2.05;;;;;;;8.59;100.00;98548.88;4932979;29;20491;-59
2024/03/31 08:07:35;;;;;;;13.45;3.20;;;;;;;8.56;100.00;98555.16;4933365;29;20066;-59
2024/03/31 08:10:03;;;;;;;11.82;3.90;;;;;;;8.55;100.00;98559.13;4932820;29;20047;-59
2024/03/31 08:12:29;;;;;;;15.98;2.33;;;;;;;8.56;100.00;98555.16;4932974;29;20074;-59
2024/03/31 08:14:55;;;;;;;10.20;2.85;;;;;;;8.55;100.00;98565.41;4933322;29;20048;-59
2024/03/31 08:17:21;;;;;;;10.88;2.30;;;;;;;8.57;100.00;98567.78;4933470;29;20070;-60
2024/03/31 08:19:48;;;;;;;17.77;2.33;;;;;;;8.56;100.00;98564.25;4933088;29;20054;-59
2024/03/31 08:22:14;;;;;;;8.45;2.10;;;;;;;8.58;100.00;98558.31;4933236;29;20070;-59
2024/03/31 08:24:40;;;;;;;10.63;2.75;;;;;;;8.58;100.00;98555.56;4933460;29;20062;-60
2024/03/31 08:27:09;;;;;;;11.32;2.72;;;;;;;8.57;100.00;98562.28;4932903;29;20402;-59
2024/03/31 08:29:35;;;;;;;13.65;4.00;;;;;;;8.56;100.00;98571.72;4933569;29;20054;-59
2024/03/31 08:32:02;;;;;;;11.05;2.80;;;;;;;8.57;100.00;98573.31;4933688;29;20564;-59
2024/03/31 08:34:29;;;;;;;11.65;1.98;;;;;;;8.55;100.00;98570.91;4932658;29;20062;-59
2024/03/31 08:36:55;;;;;;;13.25;2.60;;;;;;;8.55;100.00;98564.63;4932376;29;20055;-60
2024/03/31 08:39:22;;;;;;;10.23;2.50;;;;;;;8.57;100.00;98567.78;4932275;29;20058;-60
2024/03/31 08:41:48;;;;;;;17.05;2.63;;;;;;;8.57;100.00;98578.81;4933327;29;20051;-60
2024/03/31 08:44:16;;;;;;;21.10;4.22;;;;;;;8.56;100.00;98574.47;4931968;29;20070;-59
2024/03/31 08:46:43;;;;;;;7.45;2.15;;;;;;;8.58;100.00;98580.38;4932132;29;20055;-59
2024/03/31 08:49:10;;;;;;;18.15;2.88;;;;;;;8.61;100.00;98579.63;4932533;29;20625;-60
2024/03/31 08:51:40;;;;;;;15.57;2.92;;;;;;;8.62;100.00;98581.22;4949511;29;20059;-59
2024/03/31 08:54:07;;;;;;;21.10;4.43;;;;;;;8.65;100.00;98576.91;4932737;29;20047;-59
2024/03/31 08:56:34;;;;;;;11.85;3.55;;;;;;;8.73;100.00;98581.28;4932589;29;20552;-60
2024/03/31 08:59:02;;;;;;;12.13;2.67;;;;;;;8.80;100.00;98584.06;4931914;29;20697;-59
2024/03/31 09:01:28;;;;;;;11.85;2.85;;;;;;;8.80;100.00;98582.09;4932211;29;20063;-63
2024/03/31 09:03:55;;;;;;;12.02;2.50;;;;;;;8.82;100.00;98593.53;4900946;29;20042;-59
2024/03/31 09:06:23;;;;;;;11.75;2.42;;;;;;;8.85;100.00;98584.50;4942233;29;20055;-60
2024/03/31 09:09:00;;;;;;;13.25;1.85;;;;;;;8.92;100.00;98595.56;4932455;29;20056;-59
2024/03/31 09:11:28;;;;;;;11.60;3.00;;;;;;;9.00;100.00;98597.19;4931553;29;20051;-59
2024/03/31 09:13:56;;;;;;;11.70;2.40;;;;;;;9.04;100.00;98598.00;4932493;29;20047;-59
2024/03/31 09:16:23;;;;;;;9.13;2.35;;;;;;;9.09;100.00;98588.56;4931436;29;20059;-60
2024/03/31 09:18:49;;;;;;;9.20;2.28;;;;;;;9.17;100.00;98596.50;4932266;29;20066;-59
2024/03/31 09:21:15;;;;;;;15.02;2.60;;;;;;;9.28;100.00;98604.81;4947398;29;20054;-59
2024/03/31 09:23:42;;;;;;;15.18;2.97;;;;;;;9.37;100.00;98604.47;4932136;29;20054;-60
2024/03/31 09:26:08;;;;;;;8.25;2.97;;;;;;;9.48;100.00;98599.75;4932016;29;20054;-60
2024/03/31 09:28:36;;;;;;;15.40;3.78;;;;;;;9.56;100.00;98601.34;4931744;29;20051;-59
2024/03/31 09:31:03;;;;;;;18.95;3.53;;;;;;;9.81;100.00;98607.75;4931581;29;20051;-59
2024/03/31 09:33:33;;;;;;;14.98;3.05;;;;;;;10.13;100.00;98597.56;4932346;29;20047;-59
2024/03/31 09:36:01;;;;;;;10.90;3.88;;;;;;;10.32;100.00;98604.66;4931329;29;20047;-60
2024/03/31 09:38:28;;;;;;;11.35;2.70;;;;;;;10.33;100.00;98606.22;4931629;29;20047;-59
2024/03/31 09:40:54;;;;;;;8.60;2.60;;;;;;;10.26;100.00;98607.03;4931603;29;20058;-59
2024/03/31 09:43:21;;;;;;;11.60;2.17;;;;;;;10.22;100.00;98611.75;4931705;29;20066;-60
2024/03/31 09:45:47;;;;;;;15.93;2.60;;;;;;;10.25;100.00;98601.88;4931365;29;20054;-60
2024/03/31 09:48:19;;;;;;;10.45;3.20;;;;;;;10.25;100.00;98604.66;4947360;29;20056;-61
2024/03/31 09:51:08;;;;;;;13.10;5.25;;;;;;;10.25;100.00;98618.47;4932117;29;20519;-60
2024/03/31 09:53:37;;;;;;;11.20;2.97;;;;;;;10.33;100.00;98607.03;4930953;29;20059;-60
2024/03/31 09:56:07;;;;;;;16.05;3.55;;;;;;;10.43;100.00;98612.97;4931172;29;20043;-60
2024/03/31 09:58:36;;;;;;;15.25;2.38;;;;;;;10.45;100.00;98610.59;4930768;29;20059;-59
2024/03/31 10:01:05;;;;;;;11.15;2.35;;;;;;;10.47;100.00;98616.50;4931507;29;20405;-60
2024/03/31 10:03:40;;;;;;;11.82;2.85;;;;;;;10.50;100.00;98621.25;4931137;29;20047;-59
2024/03/31 10:06:08;;;;;;;11.52;2.20;;;;;;;10.52;100.00;98610.56;4931404;29;20047;-59
2024/03/31 10:08:35;;;;;;;12.45;2.40;;;;;;;10.85;100.00;98615.69;4930578;29;20057;-60
2024/03/31 10:11:02;;;;;;;10.95;2.13;;;;;;;11.33;100.00;98625.03;4931564;29;20409;-61
2024/03/31 10:13:30;;;;;;;7.75;2.42;;;;;;;11.64;100.00;98615.00;4931505;29;20062;-60
2024/03/31 10:15:58;;;;;;;11.00;2.00;;;;;;;12.09;100.00;98621.50;4931169;29;20059;-60
2024/03/31 10:18:26;;;;;;;8.35;2.92;;;;;;;12.03;98.59;98623.13;4931321;29;20046;-60
2024/03/31 10:20:55;;;;;;;10.95;2.38;;;;;;;11.83;99.59;98616.53;4931779;29;20055;-59
2024/03/31 10:23:23;;;;;;;10.48;2.50;;;;;;;11.66;99.80;98623.69;4930279;29;20055;-60
2024/03/31 10:25:52;;;;;;;25.05;4.18;;;;;;;11.51;100.00;98620.22;4931068;29;20058;-60
2024/03/31 10:28:19;;;;;;;6.68;1.77;;;;;;;11.39;100.00;98630.94;4931501;29;20054;-60
2024/03/31 10:30:46;;;;;;;4.30;2.17;;;;;;;11.29;100.00;98624.25;4931356;29;20059;-60
2024/03/31 10:33:12;;;;;;;12.98;2.13;;;;;;;11.40;100.00;98633.31;4947654;29;20051;-60
2024/03/31 10:35:40;;;;;;;6.78;1.88;;;;;;;11.77;100.00;98632.00;4931312;29;20043;-60
2024/03/31 10:38:10;;;;;;;13.45;2.35;;;;;;;12.48;97.99;98630.31;4931058;29;20066;-60
2024/03/31 10:40:37;;;;;;;5.53;1.55;;;;;;;13.43;94.30;98637.72;4942534;29;20062;-60
2024/03/31 10:43:07;;;;;;;7.22;1.73;;;;;;;13.99;91.28;98641.75;4931918;29;20071;-59
2024/03/31 10:45:34;;;;;;;9.18;2.22;;;;;;;14.43;89.21;98653.84;4931016;29;20051;-60
2024/03/31 10:48:01;;;;;;;9.27;1.92;;;;;;;15.05;86.73;98651.22;4931075;29;20086;-60
2024/03/31 10:50:27;;;;;;;5.38;1.63;;;;;;;15.43;85.04;98659.28;4930457;29;20048;-60
2024/03/31 10:52:53;;;;;;;9.95;2.83;;;;;;;15.66;84.12;98662.81;4931099;29;20070;-60
2024/03/31 10:55:20;;;;;;;8.00;2.33;;;;;;;15.82;83.50;98653.72;4930494;29;20051;-60
2024/03/31 10:58:00;;;;;;;15.73;3.40;;;;;;;15.94;83.36;98661.41;4930849;29;20055;-59
2024/03/31 11:00:27;;;;;;;5.93;2.22;;;;;;;15.76;83.75;98656.22;4931248;29;20062;-60
2024/03/31 11:02:53;;;;;;;11.18;1.75;;;;;;;15.52;84.76;98656.72;4927584;29;20055;-60
2024/03/31 11:05:21;;;;;;;7.90;1.95;;;;;;;15.24;85.67;98660.81;4927157;29;20056;-61
2024/03/31 11:07:50;;;;;;;7.25;1.63;;;;;;;14.85;87.09;98658.72;4927308;29;20067;-60
2024/03/31 11:10:19;;;;;;;8.95;1.77;;;;;;;14.45;88.01;98657.81;4923278;29;20067;-60
2024/03/31 11:12:46;;;;;;;6.72;1.67;;;;;;;14.15;88.80;98654.25;4918503;29;20059;-60
2024/03/31 11:15:14;;;;;;;6.35;1.67;;;;;;;13.87;89.36;98656.22;4931223;29;20051;-60
2024/03/31 11:17:42;;;;;;;8.18;1.42;;;;;;;13.67;90.04;98652.50;4943911;29;20055;-61
2024/03/31 11:20:11;;;;;;;3.22;1.83;;;;;;;13.50;90.01;98647.19;4933797;29;20410;-61
2024/03/31 11:22:38;;;;;;;5.80;1.50;;;;;;;13.40;90.21;98663.56;4934034;29;20066;-60
2024/03/31 11:25:08;;;;;;;8.18;1.63;;;;;;;13.24;90.33;98652.22;4934269;29;20493;-60
2024/03/31 11:27:35;;;;;;;5.60;1.77;;;;;;;13.05;90.36;98660.34;4934042;29;20047;-60